createdAt,value
2022-09-12T00:01:56.825Z,19.66
2022-09-12T00:04:24.673Z,19.69
2022-09-12T00:06:52.319Z,19.69
2022-09-12T00:09:19.951Z,19.63
2022-09-12T00:11:47.992Z,19.62
2022-09-12T00:14:18.634Z,19.60
2022-09-12T00:16:46.549Z,19.51
2022-09-12T00:19:15.692Z,19.39
2022-09-12T00:21:43.388Z,19.48
2022-09-12T00:24:12.075Z,19.40
2022-09-12T00:26:39.787Z,19.48
2022-09-12T00:29:07.472Z,19.44
2022-09-12T00:31:35.252Z,19.39
2022-09-12T00:34:03.004Z,19.39
2022-09-12T00:36:32.573Z,19.43
2022-09-12T00:39:00.317Z,19.28
2022-09-12T00:41:31.331Z,19.31
2022-09-12T00:44:00.569Z,19.27
2022-09-12T00:46:35.656Z,19.28
2022-09-12T00:49:06.265Z,19.19
2022-09-12T00:51:36.900Z,19.16
2022-09-12T00:54:08.977Z,19.19
2022-09-12T00:56:37.851Z,19.19
2022-09-12T00:59:09.711Z,19.15
2022-09-12T01:01:37.636Z,19.08
2022-09-12T01:04:05.490Z,19.05
2022-09-12T01:06:37.340Z,19.13
2022-09-12T01:09:05.288Z,19.15
2022-09-12T01:11:33.492Z,19.18
2022-09-12T01:14:01.161Z,19.03
2022-09-12T01:16:30.248Z,19.06
2022-09-12T01:19:12.628Z,19.00
2022-09-12T01:21:46.852Z,18.98
2022-09-12T01:24:35.807Z,18.96
2022-09-12T01:27:19.490Z,18.93
2022-09-12T01:30:20.709Z,18.92
2022-09-12T01:32:57.464Z,18.92
2022-09-12T01:35:28.891Z,18.92
2022-09-12T01:38:08.455Z,18.86
2022-09-12T01:40:46.211Z,18.81
2022-09-12T01:43:19.924Z,18.82
2022-09-12T01:45:48.836Z,18.72
2022-09-12T01:48:20.563Z,18.75
2022-09-12T01:50:51.827Z,18.76
2022-09-12T01:53:23.555Z,18.73
2022-09-12T01:55:55.364Z,18.68
2022-09-12T01:58:26.223Z,18.68
2022-09-12T02:01:01.363Z,18.67
2022-09-12T02:03:34.057Z,18.63
2022-09-12T02:06:06.336Z,18.64
2022-09-12T02:08:36.652Z,18.63
2022-09-12T02:11:08.351Z,18.60
2022-09-12T02:13:40.353Z,18.59
2022-09-12T02:16:11.580Z,18.56
2022-09-12T02:18:43.621Z,18.44
2022-09-12T02:21:11.527Z,18.52
2022-09-12T02:23:41.527Z,18.41
2022-09-12T02:26:13.849Z,18.42
2022-09-12T02:28:43.555Z,18.43
2022-09-12T02:31:15.598Z,18.41
2022-09-12T02:33:49.812Z,18.35
2022-09-12T02:36:25.020Z,18.38
2022-09-12T02:38:52.699Z,18.35
2022-09-12T02:41:21.658Z,18.35
2022-09-12T02:43:50.274Z,18.28
2022-09-12T02:46:20.982Z,18.30
2022-09-12T02:48:49.963Z,18.23
2022-09-12T02:51:22.881Z,18.08
2022-09-12T02:53:51.465Z,18.19
2022-09-12T02:56:23.629Z,18.15
2022-09-12T02:58:51.396Z,18.02
2022-09-12T03:01:30.994Z,17.98
2022-09-12T03:04:17.944Z,18.02
2022-09-12T03:06:52.363Z,17.96
2022-09-12T03:09:23.508Z,17.92
2022-09-12T03:12:03.616Z,17.95
2022-09-12T03:14:40.777Z,17.98
2022-09-12T03:17:14.478Z,17.96
2022-09-12T03:19:52.156Z,17.84
2022-09-12T03:22:23.697Z,17.87
2022-09-12T03:24:55.183Z,17.92
2022-09-12T03:27:27.727Z,17.89
2022-09-12T03:29:56.864Z,17.87
2022-09-12T03:32:45.580Z,17.82
2022-09-12T03:35:19.836Z,17.87
2022-09-12T03:37:51.509Z,17.79
2022-09-12T03:40:19.369Z,17.82
2022-09-12T03:42:47.019Z,17.77
2022-09-12T03:45:16.411Z,17.79
2022-09-12T03:47:44.180Z,17.80
2022-09-12T03:50:13.577Z,17.78
2022-09-12T03:52:41.211Z,17.77
2022-09-12T03:55:09.520Z,17.71
2022-09-12T03:57:37.180Z,17.68
2022-09-12T04:00:05.756Z,17.72
2022-09-12T04:02:33.441Z,17.66
2022-09-12T04:05:01.918Z,17.61
2022-09-12T04:07:30.988Z,17.58
2022-09-12T04:09:58.676Z,17.63
2022-09-12T04:12:26.313Z,17.61
2022-09-12T04:14:54.108Z,17.61
2022-09-12T04:17:21.804Z,17.58
2022-09-12T04:19:49.452Z,17.54
2022-09-12T04:22:17.088Z,17.52
2022-09-12T04:24:46.218Z,17.45
2022-09-12T04:27:13.959Z,17.49
2022-09-12T04:29:41.775Z,17.46
2022-09-12T04:32:09.524Z,17.45
2022-09-12T04:34:37.149Z,17.31
2022-09-12T04:37:05.068Z,17.17
2022-09-12T04:39:32.728Z,17.18
2022-09-12T04:42:02.927Z,17.12
2022-09-12T04:44:30.916Z,16.88
2022-09-12T04:46:58.572Z,16.95
2022-09-12T04:49:26.279Z,16.93
2022-09-12T04:51:54.758Z,16.86
2022-09-12T04:54:22.417Z,16.94
2022-09-12T04:56:51.081Z,16.97
2022-09-12T04:59:21.660Z,17.03
2022-09-12T05:01:49.786Z,17.04
2022-09-12T05:04:17.924Z,17.06
2022-09-12T05:06:47.528Z,17.11
2022-09-12T05:09:15.781Z,17.11
2022-09-12T05:12:04.309Z,17.10
2022-09-12T05:14:34.639Z,17.10
2022-09-12T05:17:03.015Z,17.10
2022-09-12T05:19:31.703Z,17.10
2022-09-12T05:21:59.935Z,17.06
2022-09-12T05:24:28.003Z,16.95
2022-09-12T05:26:55.713Z,16.96
2022-09-12T05:29:24.984Z,16.95
2022-09-12T05:31:54.352Z,16.90
2022-09-12T05:34:22.263Z,16.87
2022-09-12T05:36:50.034Z,16.97
2022-09-12T05:39:18.458Z,16.80
2022-09-12T05:41:46.139Z,16.93
2022-09-12T05:44:14.983Z,16.81
2022-09-12T05:46:44.251Z,16.72
2022-09-12T05:49:14.410Z,16.58
2022-09-12T05:51:44.336Z,16.56
2022-09-12T05:54:13.937Z,16.72
2022-09-12T05:56:44.363Z,16.64
2022-09-12T05:59:13.797Z,16.38
2022-09-12T06:01:41.942Z,16.30
2022-09-12T06:04:10.492Z,16.67
2022-09-12T06:06:41.599Z,16.51
2022-09-12T06:09:09.870Z,16.67
2022-09-12T06:11:40.696Z,16.47
2022-09-12T06:14:09.788Z,16.47
2022-09-12T06:16:38.100Z,16.45
2022-09-12T06:19:15.833Z,16.55
2022-09-12T06:21:45.224Z,16.57
2022-09-12T06:24:13.162Z,16.44
2022-09-12T06:26:40.913Z,16.38
2022-09-12T06:29:08.647Z,16.44
2022-09-12T06:31:37.767Z,16.69
2022-09-12T06:34:08.656Z,16.67
2022-09-12T06:36:39.400Z,16.57
2022-09-12T06:39:11.121Z,16.60
2022-09-12T06:41:43.099Z,16.45
2022-09-12T06:44:13.900Z,16.76
2022-09-12T06:46:41.580Z,16.84
2022-09-12T06:49:09.967Z,16.74
2022-09-12T06:51:37.899Z,16.90
2022-09-12T06:54:07.631Z,16.82
2022-09-12T06:56:37.941Z,17.00
2022-09-12T06:59:05.609Z,16.78
2022-09-12T07:01:33.543Z,16.95
2022-09-12T07:04:02.844Z,16.96
2022-09-12T07:06:37.701Z,16.87
2022-09-12T07:09:12.792Z,17.06
2022-09-12T07:11:42.099Z,17.26
2022-09-12T07:14:12.874Z,17.19
2022-09-12T07:16:40.639Z,17.38
2022-09-12T07:19:09.010Z,17.48
2022-09-12T07:21:39.783Z,17.70
2022-09-12T07:24:10.088Z,17.44
2022-09-12T07:26:38.724Z,17.71
2022-09-12T07:29:32.755Z,17.73
2022-09-12T07:31:54.576Z,17.77
2022-09-12T07:34:22.661Z,18.54
2022-09-12T07:36:50.297Z,18.12
2022-09-12T07:39:19.985Z,18.23
2022-09-12T07:41:47.685Z,18.32
2022-09-12T07:44:15.348Z,18.89
2022-09-12T07:46:43.009Z,18.52
2022-09-12T07:49:13.146Z,18.58
2022-09-12T07:51:41.085Z,18.96
2022-09-12T07:54:09.033Z,19.12
2022-09-12T07:56:39.374Z,19.26
2022-09-12T07:59:07.879Z,19.40
2022-09-12T08:01:35.917Z,19.60
2022-09-12T08:04:04.826Z,19.66
2022-09-12T08:06:33.865Z,19.82
2022-09-12T08:09:01.768Z,20.17
2022-09-12T08:11:31.199Z,20.22
2022-09-12T08:14:02.780Z,20.24
2022-09-12T08:16:32.062Z,20.10
2022-09-12T08:19:01.825Z,20.08
2022-09-12T08:21:31.149Z,20.14
2022-09-12T08:24:00.921Z,20.34
2022-09-12T08:26:30.517Z,20.44
2022-09-12T08:28:59.773Z,20.46
2022-09-12T08:31:28.692Z,20.49
2022-09-12T08:33:57.250Z,20.55
2022-09-12T08:36:26.455Z,20.53
2022-09-12T08:38:59.674Z,20.72
2022-09-12T08:41:31.083Z,20.80
2022-09-12T08:44:16.553Z,20.74
2022-09-12T08:46:52.912Z,20.81
2022-09-12T08:49:27.087Z,20.96
2022-09-12T08:51:55.711Z,21.10
2022-09-12T08:54:26.688Z,21.14
2022-09-12T08:56:57.797Z,20.99
2022-09-12T08:59:26.995Z,21.20
2022-09-12T09:01:58.630Z,21.33
2022-09-12T09:04:37.292Z,21.33
2022-09-12T09:07:33.003Z,21.22
2022-09-12T09:10:18.413Z,21.27
2022-09-12T09:12:52.597Z,21.13
2022-09-12T09:15:44.761Z,21.40
2022-09-12T09:18:17.650Z,21.34
2022-09-12T09:20:49.464Z,21.26
2022-09-12T09:23:22.164Z,21.42
2022-09-12T09:25:53.688Z,21.51
2022-09-12T09:28:23.931Z,21.32
2022-09-12T09:30:53.461Z,21.32
2022-09-12T09:33:23.691Z,21.38
2022-09-12T09:35:57.738Z,21.22
2022-09-12T09:38:32.504Z,21.28
2022-09-12T09:41:13.652Z,21.64
2022-09-12T09:43:41.325Z,21.66
2022-09-12T09:46:11.689Z,21.65
2022-09-12T09:48:42.110Z,21.64
2022-09-12T09:51:09.858Z,21.73
2022-09-12T09:53:41.380Z,21.65
2022-09-12T09:56:12.857Z,21.46
2022-09-12T09:58:40.696Z,21.54
2022-09-12T10:01:16.070Z,21.72
2022-09-12T10:03:49.974Z,21.67
2022-09-12T10:06:27.041Z,21.70
2022-09-12T10:09:20.317Z,21.81
2022-09-12T10:11:48.790Z,21.94
2022-09-12T10:14:32.356Z,21.79
2022-09-12T10:17:03.079Z,21.65
2022-09-12T10:19:38.434Z,21.87
2022-09-12T10:22:06.836Z,22.05
2022-09-12T10:24:36.485Z,22.08
2022-09-12T10:27:09.941Z,22.01
2022-09-12T10:29:43.852Z,21.87
2022-09-12T10:32:14.043Z,21.84
2022-09-12T10:34:44.556Z,21.87
2022-09-12T10:37:20.413Z,22.04
2022-09-12T10:39:53.552Z,21.90
2022-09-12T10:42:42.988Z,21.95
2022-09-12T10:45:19.986Z,22.25
2022-09-12T10:47:49.168Z,22.03
2022-09-12T10:50:30.895Z,21.91
2022-09-12T10:53:15.557Z,22.13
2022-09-12T10:55:59.265Z,22.08
2022-09-12T10:58:49.815Z,21.96
2022-09-12T11:04:07.266Z,22.16
2022-09-12T11:06:41.003Z,22.04
2022-09-12T11:09:14.788Z,22.18
2022-09-12T11:11:55.477Z,22.16
2022-09-12T11:14:36.596Z,22.06
2022-09-12T11:17:13.642Z,22.10
2022-09-12T11:20:07.541Z,22.32
2022-09-12T11:22:44.119Z,22.32
2022-09-12T11:25:25.736Z,22.52
2022-09-12T11:28:07.743Z,22.45
2022-09-12T11:30:41.088Z,22.34
2022-09-12T11:33:17.766Z,22.48
2022-09-12T11:35:53.067Z,22.62
2022-09-12T11:38:37.096Z,22.72
2022-09-12T11:41:06.765Z,22.46
2022-09-12T11:43:39.315Z,22.72
2022-09-12T11:46:13.214Z,22.61
2022-09-12T11:48:46.552Z,22.77
2022-09-12T11:51:20.201Z,22.71
2022-09-12T11:54:00.815Z,22.61
2022-09-12T11:56:28.490Z,22.67
2022-09-12T11:59:00.402Z,22.72
2022-09-12T12:01:30.495Z,22.89
2022-09-12T12:03:58.906Z,22.72
2022-09-12T12:06:31.670Z,22.81
2022-09-12T12:08:59.674Z,22.71
2022-09-12T12:11:31.143Z,22.56
2022-09-12T12:14:01.736Z,22.64
2022-09-12T12:16:30.879Z,22.67
2022-09-12T12:19:00.139Z,22.67
2022-09-12T12:21:42.262Z,22.63
2022-09-12T12:24:18.229Z,22.54
2022-09-12T12:26:57.296Z,22.68
2022-09-12T12:29:43.373Z,22.67
2022-09-12T12:32:25.096Z,22.62
2022-09-12T12:35:03.152Z,22.77
2022-09-12T12:37:52.164Z,22.76
2022-09-12T12:40:25.064Z,22.90
2022-09-12T12:43:00.078Z,22.71
2022-09-12T12:45:49.379Z,22.79
2022-09-12T12:48:20.301Z,22.75
2022-09-12T12:50:48.409Z,22.84
2022-09-12T12:53:21.147Z,22.87
2022-09-12T12:55:51.658Z,22.78
2022-09-12T12:58:30.665Z,22.86
2022-09-12T13:01:10.736Z,22.79
2022-09-12T13:03:39.781Z,22.65
2022-09-12T13:06:09.167Z,22.88
2022-09-12T13:08:40.665Z,22.88
2022-09-12T13:11:10.155Z,23.00
2022-09-12T13:13:40.689Z,22.91
2022-09-12T13:16:10.454Z,22.93
2022-09-12T13:18:43.124Z,22.93
2022-09-12T13:21:13.192Z,22.97
2022-09-12T13:23:42.787Z,22.99
2022-09-12T13:26:12.953Z,22.88
2022-09-12T13:28:40.623Z,22.86
2022-09-12T13:31:13.707Z,22.95
2022-09-12T13:33:43.292Z,22.93
2022-09-12T13:36:39.125Z,22.99
2022-09-12T13:39:16.264Z,23.07
2022-09-12T13:42:03.160Z,23.23
2022-09-12T13:44:31.923Z,23.21
2022-09-12T13:47:03.083Z,23.15
2022-09-12T13:49:34.861Z,23.15
2022-09-12T13:52:04.915Z,23.10
2022-09-12T13:54:34.639Z,23.17
2022-09-12T13:57:02.346Z,23.12
2022-09-12T13:59:39.247Z,23.09
2022-09-12T14:02:18.870Z,23.22
2022-09-12T14:05:05.556Z,23.23
2022-09-12T14:07:34.434Z,23.31
2022-09-12T14:10:05.841Z,23.07
2022-09-12T14:12:36.448Z,23.18
2022-09-12T14:15:04.771Z,23.22
2022-09-12T14:17:36.008Z,23.12
2022-09-12T14:20:07.203Z,23.11
2022-09-12T14:22:36.283Z,23.16
2022-09-12T14:25:10.709Z,23.18
2022-09-12T14:27:43.008Z,23.26
2022-09-12T14:30:23.192Z,23.25
2022-09-12T14:33:05.470Z,23.32
2022-09-12T14:35:33.633Z,23.20
2022-09-12T14:38:08.203Z,23.11
2022-09-12T14:40:43.580Z,23.20
2022-09-12T14:43:20.016Z,23.19
2022-09-12T14:45:55.473Z,23.25
2022-09-12T14:48:23.378Z,23.15
2022-09-12T14:50:51.626Z,23.18
2022-09-12T14:53:27.831Z,23.30
2022-09-12T14:56:00.375Z,23.31
2022-09-12T14:58:29.559Z,23.46
2022-09-12T15:01:01.723Z,23.54
2022-09-12T15:03:34.699Z,23.34
2022-09-12T15:06:03.929Z,23.26
2022-09-12T15:08:32.686Z,23.23
2022-09-12T15:11:01.795Z,23.41
2022-09-12T15:13:30.666Z,23.26
2022-09-12T15:15:59.383Z,23.22
2022-09-12T15:18:28.803Z,23.26
2022-09-12T15:20:57.732Z,23.24
2022-09-12T15:23:31.980Z,23.42
2022-09-12T15:26:00.022Z,23.36
2022-09-12T15:28:32.374Z,23.24
2022-09-12T15:31:05.945Z,23.18
2022-09-12T15:33:33.821Z,23.31
2022-09-12T15:36:03.055Z,23.03
2022-09-12T15:38:30.847Z,22.99
2022-09-12T15:40:58.507Z,22.93
2022-09-12T15:43:27.066Z,22.95
2022-09-12T15:45:56.071Z,22.94
2022-09-12T15:48:23.864Z,22.83
2022-09-12T15:50:51.487Z,22.93
2022-09-12T15:53:19.107Z,23.06
2022-09-12T15:55:46.782Z,23.19
2022-09-12T15:58:14.463Z,22.99
2022-09-12T16:00:42.169Z,23.11
2022-09-12T16:03:21.072Z,23.02
2022-09-12T16:05:48.824Z,22.98
2022-09-12T16:08:16.470Z,23.00
2022-09-12T16:10:44.905Z,22.87
2022-09-12T16:13:13.326Z,22.81
2022-09-12T16:15:40.985Z,22.87
2022-09-12T16:18:08.704Z,22.89
2022-09-12T16:20:40.193Z,22.84
2022-09-12T16:23:08.236Z,23.01
2022-09-12T16:25:37.457Z,22.74
2022-09-12T16:28:05.627Z,22.91
2022-09-12T16:30:33.341Z,22.86
2022-09-12T16:33:01.338Z,22.86
2022-09-12T16:35:29.037Z,22.74
2022-09-12T16:37:58.079Z,22.77
2022-09-12T16:40:25.723Z,22.63
2022-09-12T16:42:53.375Z,22.72
2022-09-12T16:45:21.038Z,22.58
2022-09-12T16:47:48.696Z,22.45
2022-09-12T16:50:17.352Z,22.44
2022-09-12T16:52:44.994Z,22.42
2022-09-12T16:55:14.013Z,22.45
2022-09-12T16:57:41.649Z,22.60
2022-09-12T17:00:10.848Z,22.73
2022-09-12T17:02:38.525Z,22.86
2022-09-12T17:05:07.224Z,22.92
2022-09-12T17:07:35.127Z,22.70
2022-09-12T17:10:05.017Z,22.77
2022-09-12T17:12:34.220Z,22.55
2022-09-12T17:15:02.932Z,22.46
2022-09-12T17:17:30.593Z,22.48
2022-09-12T17:19:59.312Z,22.63
2022-09-12T17:22:27.513Z,22.81
2022-09-12T17:24:55.324Z,22.93
2022-09-12T17:27:22.995Z,22.79
2022-09-12T17:29:51.975Z,22.71
2022-09-12T17:32:19.599Z,22.74
2022-09-12T17:34:47.256Z,22.79
2022-09-12T17:37:15.058Z,22.45
2022-09-12T17:39:42.751Z,22.32
2022-09-12T17:42:10.448Z,22.43
2022-09-12T17:44:38.150Z,22.54
2022-09-12T17:47:07.309Z,22.68
2022-09-12T17:49:35.645Z,22.50
2022-09-12T17:52:04.064Z,22.52
2022-09-12T17:54:31.765Z,22.46
2022-09-12T17:56:59.644Z,22.53
2022-09-12T17:59:27.340Z,22.35
2022-09-12T18:02:12.895Z,22.35
2022-09-12T18:04:45.684Z,22.19
2022-09-12T18:07:13.764Z,22.40
2022-09-12T18:09:43.762Z,22.41
2022-09-12T18:12:11.730Z,22.18
2022-09-12T18:14:39.612Z,22.37
2022-09-12T18:17:08.561Z,22.15
2022-09-12T18:19:36.421Z,22.31
2022-09-12T18:22:06.649Z,21.90
2022-09-12T18:24:34.438Z,21.68
2022-09-12T18:27:04.371Z,21.69
2022-09-12T18:29:33.195Z,21.63
2022-09-12T18:32:00.843Z,21.78
2022-09-12T18:34:28.824Z,21.80
2022-09-12T18:36:56.574Z,21.42
2022-09-12T18:39:27.890Z,21.99
2022-09-12T18:41:57.159Z,21.75
2022-09-12T18:44:24.816Z,21.91
2022-09-12T18:46:52.716Z,21.84
2022-09-12T18:49:20.392Z,22.00
2022-09-12T18:51:48.056Z,21.91
2022-09-12T18:54:17.507Z,22.01
2022-09-12T18:56:47.505Z,21.89
2022-09-12T18:59:15.221Z,21.78
2022-09-12T19:01:43.702Z,21.82
2022-09-12T19:04:12.891Z,21.46
2022-09-12T19:06:42.088Z,21.59
2022-09-12T19:09:10.831Z,21.33
2022-09-12T19:11:40.765Z,21.38
2022-09-12T19:14:09.762Z,21.13
2022-09-12T19:16:38.048Z,21.03
2022-09-12T19:19:06.169Z,21.12
2022-09-12T19:21:35.128Z,20.93
2022-09-12T19:24:05.150Z,21.23
2022-09-12T19:26:33.658Z,21.10
2022-09-12T19:29:02.752Z,20.90
2022-09-12T19:31:32.516Z,21.15
2022-09-12T19:34:01.352Z,21.15
2022-09-12T19:36:45.015Z,21.14
2022-09-12T19:39:13.849Z,21.20
2022-09-12T19:41:41.508Z,21.18
2022-09-12T19:44:09.255Z,21.25
2022-09-12T19:46:38.441Z,21.41
2022-09-12T19:49:06.593Z,20.91
2022-09-12T19:51:34.216Z,20.88
2022-09-12T19:54:03.007Z,20.63
2022-09-12T19:56:30.848Z,20.59
2022-09-12T19:58:58.564Z,20.41
2022-09-12T20:01:28.598Z,20.33
2022-09-12T20:03:58.410Z,20.38
2022-09-12T20:06:27.189Z,19.99
2022-09-12T20:08:55.378Z,19.91
2022-09-12T20:11:24.285Z,20.19
2022-09-12T20:13:52.318Z,20.10
2022-09-12T20:16:22.596Z,19.92
2022-09-12T20:18:54.448Z,19.98
2022-09-12T20:21:30.765Z,19.97
2022-09-12T20:24:03.040Z,20.01
2022-09-12T20:26:31.155Z,19.88
2022-09-12T20:28:58.815Z,19.83
2022-09-12T20:31:26.574Z,20.01
2022-09-12T20:33:55.155Z,20.14
2022-09-12T20:36:24.236Z,20.03
2022-09-12T20:38:53.485Z,20.30
2022-09-12T20:41:23.305Z,20.43
2022-09-12T20:43:51.090Z,20.27
2022-09-12T20:46:21.922Z,20.17
2022-09-12T20:48:50.373Z,20.03
2022-09-12T20:51:18.613Z,20.07
2022-09-12T20:53:48.311Z,20.05
2022-09-12T20:56:16.085Z,19.99
2022-09-12T20:58:44.775Z,20.31
2022-09-12T21:01:15.599Z,20.39
2022-09-12T21:03:44.685Z,20.13
2022-09-12T21:06:13.374Z,20.11
2022-09-12T21:08:41.383Z,20.20
2022-09-12T21:11:10.730Z,20.10
2022-09-12T21:13:38.635Z,20.10
2022-09-12T21:16:07.982Z,19.92
2022-09-12T21:18:36.128Z,20.11
2022-09-12T21:21:06.605Z,19.69
2022-09-12T21:23:34.921Z,19.83
2022-09-12T21:26:05.839Z,19.72
2022-09-12T21:28:35.011Z,19.87
2022-09-12T21:31:05.087Z,19.74
2022-09-12T21:33:32.968Z,20.13
2022-09-12T21:36:04.359Z,19.66
2022-09-12T21:38:32.450Z,19.87
2022-09-12T21:41:06.255Z,19.97
2022-09-12T21:43:35.473Z,19.78
2022-09-12T21:46:04.102Z,19.58
2022-09-12T21:48:32.243Z,19.42
2022-09-12T21:51:00.313Z,19.30
2022-09-12T21:53:29.200Z,19.72
2022-09-12T21:56:03.063Z,19.78
2022-09-12T21:58:31.012Z,20.01
2022-09-12T22:01:00.750Z,20.04
2022-09-12T22:03:28.598Z,20.00
2022-09-12T22:06:00.349Z,19.70
2022-09-12T22:08:28.374Z,20.05
2022-09-12T22:10:59.392Z,19.98
2022-09-12T22:13:27.431Z,20.23
2022-09-12T22:15:55.190Z,20.08
2022-09-12T22:18:24.203Z,19.76
2022-09-12T22:20:59.598Z,20.07
2022-09-12T22:23:44.935Z,20.01
2022-09-12T22:26:12.888Z,20.01
2022-09-12T22:28:41.092Z,19.86
2022-09-12T22:31:11.320Z,20.05
2022-09-12T22:33:40.584Z,19.91
2022-09-12T22:36:09.774Z,19.78
2022-09-12T22:38:37.624Z,19.42
2022-09-12T22:41:06.129Z,19.24
2022-09-12T22:43:34.233Z,19.35
2022-09-12T22:46:03.040Z,19.27
2022-09-12T22:48:30.696Z,19.24
2022-09-12T22:50:59.712Z,19.50
2022-09-12T22:53:27.340Z,19.41
2022-09-12T22:55:54.980Z,19.56
2022-09-12T22:58:22.630Z,19.41
2022-09-12T23:00:51.283Z,19.63
2022-09-12T23:03:19.349Z,19.65
2022-09-12T23:05:48.188Z,19.78
2022-09-12T23:08:19.236Z,19.42
2022-09-12T23:10:47.003Z,19.86
2022-09-12T23:13:14.905Z,19.73
2022-09-12T23:15:42.568Z,19.79
2022-09-12T23:18:10.203Z,19.67
2022-09-12T23:20:37.844Z,19.25
2022-09-12T23:23:05.505Z,19.20
2022-09-12T23:25:34.484Z,19.37
2022-09-12T23:28:02.948Z,19.22
2022-09-12T23:30:30.917Z,19.69
2022-09-12T23:32:58.553Z,19.51
2022-09-12T23:35:26.184Z,19.25
2022-09-12T23:37:53.828Z,19.37
2022-09-12T23:40:21.583Z,19.23
2022-09-12T23:42:50.643Z,19.05
2022-09-12T23:45:18.279Z,19.27
2022-09-12T23:47:45.928Z,19.41
2022-09-12T23:50:13.589Z,19.34
2022-09-12T23:52:41.237Z,19.41
2022-09-12T23:55:10.028Z,19.55
2022-09-12T23:57:39.209Z,19.53
